메인 페이지
METAR-TAF:

METAR-TAF

공항 :

Tumbes, 페루

위도: 03-33S, 경도: 080-24W, 고도: 25m

현재 날씨관측

예보는 20분 전, 19:00시(UTC)에 발표되었습니다.
북북서9kt
온도 29°C
습도 74%
기압 1010 hPa
시정 10km 이상
고도 1700ft 상공 구름 보통
고도 4000ft 상공 흐림

METAR: SPME 181900Z 34009KT 9999 SCT017 OVC040 29/24 Q1010 RMK BIRD HAZARD RWY 32/14 PP000

시각: 14:20 (19:20 UTC)

예보

예보는 8 시간 10분 전, 11:10시(UTC)에 발표되었습니다.
예보 대상 시간: 18일 12시부터 19일 12시까지 (UTC)
남남동5kt
시정 10km 이상
고도 2000ft 상공 구름 보통
전환 중
18일 16시부터 18일 18시까지 (UTC)
북북서10kt
전환 중
18일 20시부터 18일 22시까지 (UTC)
7kt

TAF: SPME 181110Z 1812/1912 16005KT 9999 SCT020 TX31/1819Z TN24/1911Z BECMG 1816/1818 34010KT BECMG 1820/1822 26007KT

4,000개 이상의 공항 관측 자료 및 예보 (METAR 및 TAF 보고).

지도상에서 검색 가능한 기상관측소가 노란 점과 빨간 점으로 표시되어 있습니다.

기상관측소 명을 보려면 표시 위로 마우스를 이동하세요.

날씨 관측과 예보를 보려면 클릭하세요.

지도 변경 : 확대하려면 엑스 표시가 있는 녹색 버튼, 축소하려면 빼기 표시가 있는 녹색 버튼, 다음 페이지의 지도를 보려면 녹색 화살표를 클릭하세요.


METAR-TAF: